createdAt,value
2023-01-30T00:00:01.554Z,48.90
2023-01-30T00:00:34.109Z,52.20
2023-01-30T00:01:06.560Z,57.90
2023-01-30T00:01:39.039Z,56.80
2023-01-30T00:02:11.580Z,49.10
2023-01-30T00:02:44.127Z,52.00
2023-01-30T00:03:16.575Z,52.40
2023-01-30T00:03:49.079Z,49.00
2023-01-30T00:04:21.553Z,48.50
2023-01-30T00:04:54.113Z,49.90
2023-01-30T00:05:26.560Z,52.10
2023-01-30T00:05:59.067Z,51.50
2023-01-30T00:06:31.604Z,50.70
2023-01-30T00:07:04.046Z,51.20
2023-01-30T00:07:36.472Z,50.80
2023-01-30T00:08:08.941Z,48.70
2023-01-30T00:08:41.409Z,49.60
2023-01-30T00:09:13.881Z,50.70
2023-01-30T00:09:46.333Z,54.50
2023-01-30T00:10:19.297Z,54.60
2023-01-30T00:10:51.466Z,54.90
2023-01-30T00:11:23.896Z,56.00
2023-01-30T00:11:56.375Z,51.80
2023-01-30T00:12:28.825Z,51.40
2023-01-30T00:13:01.286Z,53.20
2023-01-30T00:13:33.737Z,47.20
2023-01-30T00:14:06.203Z,46.40
2023-01-30T00:14:38.660Z,47.70
2023-01-30T00:15:11.129Z,46.00
2023-01-30T00:15:43.597Z,55.60
2023-01-30T00:16:16.110Z,59.60
2023-01-30T00:16:48.525Z,49.30
2023-01-30T00:17:20.952Z,44.80
2023-01-30T00:17:53.427Z,45.30
2023-01-30T00:18:25.891Z,47.40
2023-01-30T00:18:58.350Z,49.90
2023-01-30T00:19:30.865Z,48.50
2023-01-30T00:20:03.317Z,46.00
2023-01-30T00:20:35.773Z,49.00
2023-01-30T00:21:08.224Z,58.40
2023-01-30T00:21:40.659Z,59.40
2023-01-30T00:22:13.106Z,51.80
2023-01-30T00:22:59.250Z,47.10
2023-01-30T00:23:18.010Z,50.50
2023-01-30T00:23:50.506Z,51.40
2023-01-30T00:24:23.203Z,47.50
2023-01-30T00:24:55.579Z,53.10
2023-01-30T00:25:28.009Z,52.30
2023-01-30T00:26:00.476Z,48.60
2023-01-30T00:26:32.925Z,50.30
2023-01-30T00:27:05.340Z,52.10
2023-01-30T00:27:37.737Z,58.50
2023-01-30T00:28:10.228Z,59.40
2023-01-30T00:28:42.594Z,55.30
2023-01-30T00:29:15.024Z,56.80
2023-01-30T00:29:57.752Z,56.20
2023-01-30T00:30:20.112Z,53.90
2023-01-30T00:30:52.412Z,53.00
2023-01-30T00:31:24.863Z,52.70
2023-01-30T00:31:57.455Z,51.70
2023-01-30T00:32:29.821Z,58.50
2023-01-30T00:33:02.245Z,60.00
2023-01-30T00:33:34.672Z,58.10
2023-01-30T00:34:07.199Z,62.60
2023-01-30T00:34:39.637Z,58.40
2023-01-30T00:35:12.146Z,55.30
2023-01-30T00:35:45.922Z,59.40
2023-01-30T00:36:17.114Z,59.40
2023-01-30T00:36:58.839Z,59.80
2023-01-30T00:37:22.041Z,53.70
2023-01-30T00:37:54.588Z,54.30
2023-01-30T00:38:27.811Z,57.90
2023-01-30T00:39:00.226Z,53.80
2023-01-30T00:39:32.719Z,53.10
2023-01-30T00:40:05.180Z,50.00
2023-01-30T00:40:37.636Z,45.30
2023-01-30T00:41:10.089Z,45.20
2023-01-30T00:41:42.566Z,55.60
2023-01-30T00:42:15.153Z,62.10
2023-01-30T00:42:47.580Z,58.10
2023-01-30T00:43:20.041Z,53.80
2023-01-30T00:43:52.515Z,48.80
2023-01-30T00:44:24.961Z,49.80
2023-01-30T00:44:57.473Z,55.80
2023-01-30T00:45:30.003Z,60.20
2023-01-30T00:46:02.418Z,49.50
2023-01-30T00:46:34.831Z,43.60
2023-01-30T00:47:07.258Z,56.30
2023-01-30T00:47:39.717Z,54.60
2023-01-30T00:48:12.139Z,52.80
2023-01-30T00:48:44.607Z,57.20
2023-01-30T00:49:17.053Z,51.20
2023-01-30T00:49:49.490Z,51.70
2023-01-30T00:50:21.925Z,54.90
2023-01-30T00:50:54.380Z,52.50
2023-01-30T00:51:26.854Z,60.90
2023-01-30T00:51:59.283Z,56.70
2023-01-30T00:52:31.732Z,56.60
2023-01-30T00:53:04.175Z,63.80
2023-01-30T00:53:36.608Z,57.50
2023-01-30T00:54:09.083Z,46.80
2023-01-30T00:54:41.539Z,50.20
2023-01-30T00:55:14.077Z,54.20
2023-01-30T00:55:46.544Z,53.30
2023-01-30T00:56:18.988Z,53.80
2023-01-30T00:56:51.507Z,59.60
2023-01-30T00:57:23.934Z,62.30
2023-01-30T00:57:56.377Z,56.20
2023-01-30T00:58:28.848Z,52.40
2023-01-30T00:59:01.301Z,55.00
2023-01-30T00:59:33.782Z,51.90
2023-01-30T01:00:06.309Z,53.10
2023-01-30T01:00:38.778Z,53.50
2023-01-30T01:01:11.237Z,48.60
2023-01-30T01:01:43.690Z,53.20
2023-01-30T01:02:16.161Z,57.40
2023-01-30T01:02:48.607Z,58.90
2023-01-30T01:03:21.075Z,51.80
2023-01-30T01:03:53.529Z,45.20
2023-01-30T01:04:25.994Z,50.40
2023-01-30T01:04:58.452Z,51.30
2023-01-30T01:05:30.889Z,51.60
2023-01-30T01:06:03.389Z,48.10
2023-01-30T01:06:35.849Z,48.60
2023-01-30T01:07:08.308Z,51.70
2023-01-30T01:07:40.780Z,58.80
2023-01-30T01:08:13.246Z,69.40
2023-01-30T01:08:45.750Z,64.20
2023-01-30T01:09:18.142Z,50.40
2023-01-30T01:09:50.597Z,46.80
2023-01-30T01:10:23.075Z,48.60
2023-01-30T01:10:55.551Z,52.20
2023-01-30T01:11:27.999Z,53.10
2023-01-30T01:12:00.447Z,52.30
2023-01-30T01:12:32.908Z,57.30
2023-01-30T01:13:05.366Z,58.90
2023-01-30T01:13:37.856Z,56.20
2023-01-30T01:14:10.304Z,52.90
2023-01-30T01:14:42.748Z,59.60
2023-01-30T01:15:16.111Z,56.20
2023-01-30T01:15:48.343Z,53.10
2023-01-30T01:16:20.861Z,58.40
2023-01-30T01:16:53.339Z,54.30
2023-01-30T01:17:25.809Z,51.40
2023-01-30T01:17:58.353Z,49.20
2023-01-30T01:18:30.794Z,54.80
2023-01-30T01:19:03.253Z,60.70
2023-01-30T01:19:35.703Z,58.70
2023-01-30T01:20:08.197Z,62.80
2023-01-30T01:20:40.708Z,56.80
2023-01-30T01:21:13.171Z,47.30
2023-01-30T01:21:45.618Z,53.60
2023-01-30T01:22:18.064Z,50.80
2023-01-30T01:22:50.548Z,51.10
2023-01-30T01:23:22.960Z,58.70
2023-01-30T01:23:55.429Z,59.20
2023-01-30T01:24:27.896Z,54.30
2023-01-30T01:25:00.320Z,49.70
2023-01-30T01:25:32.798Z,57.40
2023-01-30T01:26:05.257Z,57.40
2023-01-30T01:26:37.771Z,50.60
2023-01-30T01:27:10.192Z,53.30
2023-01-30T01:27:42.659Z,56.50
2023-01-30T01:28:15.142Z,51.50
2023-01-30T01:28:47.590Z,51.40
2023-01-30T01:29:20.036Z,68.60
2023-01-30T01:29:52.472Z,70.50
2023-01-30T01:30:24.921Z,61.80
2023-01-30T01:30:57.388Z,55.70
2023-01-30T01:31:29.948Z,54.30
2023-01-30T01:32:02.287Z,53.90
2023-01-30T01:32:34.714Z,51.60
2023-01-30T01:33:07.140Z,57.90
2023-01-30T01:33:39.634Z,56.40
2023-01-30T01:34:12.158Z,53.30
2023-01-30T01:34:44.661Z,54.60
2023-01-30T01:35:17.479Z,56.60
2023-01-30T01:35:49.699Z,55.50
2023-01-30T01:36:49.752Z,57.40
2023-01-30T01:36:54.975Z,57.80
2023-01-30T01:37:27.261Z,52.30
2023-01-30T01:37:59.681Z,55.90
2023-01-30T01:38:32.169Z,55.80
2023-01-30T01:39:04.607Z,55.60
2023-01-30T01:39:37.046Z,58.50
2023-01-30T01:40:09.535Z,53.00
2023-01-30T01:40:42.013Z,53.40
2023-01-30T01:41:14.446Z,51.60
2023-01-30T01:41:46.888Z,51.10
2023-01-30T01:42:19.330Z,51.40
2023-01-30T01:42:51.784Z,57.00
2023-01-30T01:43:24.188Z,58.90
2023-01-30T01:43:56.635Z,50.20
2023-01-30T01:44:29.062Z,62.00
2023-01-30T01:45:01.500Z,64.10
2023-01-30T01:45:33.993Z,47.40
2023-01-30T01:46:06.508Z,47.50
2023-01-30T01:46:38.937Z,57.30
2023-01-30T01:47:11.407Z,57.80
2023-01-30T01:47:43.953Z,53.50
2023-01-30T01:48:16.451Z,54.70
2023-01-30T01:48:49.023Z,54.80
2023-01-30T01:49:21.474Z,59.50
2023-01-30T01:49:53.953Z,57.10
2023-01-30T01:50:26.439Z,52.60
2023-01-30T01:50:58.885Z,49.80
2023-01-30T01:51:31.409Z,57.30
2023-01-30T01:52:04.035Z,63.70
2023-01-30T01:52:36.548Z,62.80
2023-01-30T01:53:09.024Z,58.90
2023-01-30T01:53:41.728Z,56.10
2023-01-30T01:54:14.445Z,59.90
2023-01-30T01:54:46.899Z,61.10
2023-01-30T01:55:19.688Z,54.50
2023-01-30T01:55:51.855Z,60.80
2023-01-30T01:56:24.315Z,66.60
2023-01-30T01:56:56.822Z,58.30
2023-01-30T01:57:29.236Z,50.40
2023-01-30T01:58:01.693Z,57.30
2023-01-30T01:58:34.128Z,59.10
2023-01-30T01:59:06.607Z,53.30
2023-01-30T01:59:39.101Z,47.40
2023-01-30T02:00:11.573Z,52.70
2023-01-30T02:00:44.048Z,51.00
2023-01-30T02:01:16.564Z,46.30
2023-01-30T02:01:48.967Z,50.80
2023-01-30T02:02:21.475Z,54.50
2023-01-30T02:02:53.865Z,53.70
2023-01-30T02:03:26.311Z,49.00
2023-01-30T02:03:58.764Z,49.70
2023-01-30T02:04:31.214Z,51.90
2023-01-30T02:05:03.671Z,59.40
2023-01-30T02:05:36.122Z,58.20
2023-01-30T02:06:08.633Z,54.70
2023-01-30T02:06:41.120Z,53.90
2023-01-30T02:07:13.601Z,52.80
2023-01-30T02:07:46.034Z,56.70
2023-01-30T02:08:18.514Z,62.50
2023-01-30T02:08:50.991Z,61.00
2023-01-30T02:09:23.489Z,55.40
2023-01-30T02:09:56.000Z,56.40
2023-01-30T02:10:28.507Z,61.20
2023-01-30T02:11:00.989Z,57.40
2023-01-30T02:11:33.446Z,59.10
2023-01-30T02:12:05.913Z,59.30
2023-01-30T02:12:38.418Z,60.70
2023-01-30T02:13:10.892Z,57.10
2023-01-30T02:13:43.370Z,60.20
2023-01-30T02:14:15.876Z,60.60
2023-01-30T02:14:48.357Z,55.00
2023-01-30T02:15:20.839Z,55.20
2023-01-30T02:15:53.304Z,58.30
2023-01-30T02:16:25.771Z,54.60
2023-01-30T02:16:58.222Z,59.30
2023-01-30T02:17:30.736Z,57.30
2023-01-30T02:18:03.225Z,57.30
2023-01-30T02:18:35.723Z,61.40
2023-01-30T02:19:08.161Z,56.30
2023-01-30T02:19:40.640Z,65.40
2023-01-30T02:20:13.100Z,62.10
2023-01-30T02:20:45.567Z,60.70
2023-01-30T02:21:17.996Z,65.20
2023-01-30T02:21:50.456Z,58.40
2023-01-30T02:22:22.919Z,52.30
2023-01-30T02:22:55.544Z,53.80
2023-01-30T02:23:27.998Z,61.10
2023-01-30T02:24:00.545Z,60.70
2023-01-30T02:24:33.005Z,56.20
2023-01-30T02:25:05.484Z,54.00
2023-01-30T02:25:37.934Z,58.60
2023-01-30T02:26:10.420Z,61.60
2023-01-30T02:26:43.047Z,53.70
2023-01-30T02:27:15.466Z,52.10
2023-01-30T02:27:47.928Z,53.00
2023-01-30T02:28:20.379Z,48.50
2023-01-30T02:28:52.836Z,52.90
2023-01-30T02:29:25.293Z,64.70
2023-01-30T02:29:57.782Z,63.50
2023-01-30T02:30:30.387Z,54.30
2023-01-30T02:31:02.832Z,58.10
2023-01-30T02:31:35.399Z,62.00
2023-01-30T02:32:07.675Z,59.00
2023-01-30T02:32:40.126Z,57.40
2023-01-30T02:33:12.655Z,53.40
2023-01-30T02:33:45.133Z,52.80
2023-01-30T02:34:17.700Z,58.00
2023-01-30T02:34:50.218Z,60.50
2023-01-30T02:35:22.704Z,63.80
2023-01-30T02:35:55.235Z,62.70
2023-01-30T02:36:27.769Z,66.30
2023-01-30T02:37:00.360Z,68.90
2023-01-30T02:37:32.884Z,60.30
2023-01-30T02:38:05.384Z,51.60
2023-01-30T02:38:37.914Z,54.80
2023-01-30T02:39:10.421Z,56.80
2023-01-30T02:39:42.951Z,58.60
2023-01-30T02:40:15.504Z,58.70
2023-01-30T02:40:47.938Z,62.40
2023-01-30T02:41:20.386Z,55.30
2023-01-30T02:41:52.884Z,58.90
2023-01-30T02:42:25.324Z,64.90
2023-01-30T02:42:57.773Z,58.80
2023-01-30T02:43:30.243Z,57.10
2023-01-30T02:44:02.805Z,55.60
2023-01-30T02:44:35.255Z,52.20
2023-01-30T02:45:07.856Z,58.50
2023-01-30T02:45:40.432Z,60.70
2023-01-30T02:46:12.916Z,59.10
2023-01-30T02:46:45.419Z,59.20
2023-01-30T02:47:17.922Z,64.20
2023-01-30T02:47:50.391Z,66.50
2023-01-30T02:48:22.856Z,61.90
2023-01-30T02:48:55.315Z,63.70
2023-01-30T02:49:27.788Z,73.70
2023-01-30T02:50:00.257Z,65.00
2023-01-30T02:50:32.730Z,55.40
2023-01-30T02:51:05.195Z,62.00
2023-01-30T02:51:37.702Z,64.90
2023-01-30T02:52:10.315Z,59.60
2023-01-30T02:52:42.826Z,61.10
2023-01-30T02:53:15.346Z,56.70
2023-01-30T02:53:47.805Z,59.30
2023-01-30T02:54:20.281Z,61.30
2023-01-30T02:54:52.737Z,63.80
2023-01-30T02:55:25.214Z,62.50
2023-01-30T02:55:57.659Z,64.00
2023-01-30T02:56:30.115Z,62.60
2023-01-30T02:57:02.608Z,62.70
2023-01-30T02:57:35.465Z,75.70
2023-01-30T02:58:07.958Z,69.10
2023-01-30T02:58:40.425Z,65.50
2023-01-30T02:59:12.878Z,66.60
2023-01-30T02:59:45.308Z,64.10
2023-01-30T03:00:17.751Z,58.40
2023-01-30T03:00:50.236Z,59.40
2023-01-30T03:01:22.746Z,70.00
2023-01-30T03:01:55.147Z,67.40
2023-01-30T03:02:27.704Z,57.10
2023-01-30T03:03:00.139Z,60.30
2023-01-30T03:03:32.593Z,61.50
2023-01-30T03:04:05.091Z,66.70
2023-01-30T03:04:37.614Z,66.80
2023-01-30T03:05:10.106Z,61.40
2023-01-30T03:05:42.649Z,59.90
2023-01-30T03:06:15.095Z,56.90
2023-01-30T03:06:47.599Z,62.90
2023-01-30T03:07:20.055Z,61.50
2023-01-30T03:07:52.523Z,58.80
2023-01-30T03:08:24.972Z,61.50
2023-01-30T03:08:57.443Z,65.40
2023-01-30T03:09:29.958Z,69.60
2023-01-30T03:10:02.404Z,63.10
2023-01-30T03:10:34.884Z,55.80
2023-01-30T03:11:07.301Z,56.80
2023-01-30T03:11:39.773Z,58.50
2023-01-30T03:12:12.223Z,62.90
2023-01-30T03:12:44.666Z,67.00
2023-01-30T03:13:17.120Z,63.20
2023-01-30T03:13:49.571Z,59.50
2023-01-30T03:14:22.023Z,56.70
2023-01-30T03:14:54.548Z,55.50
2023-01-30T03:15:26.999Z,53.70
2023-01-30T03:15:59.490Z,56.50
2023-01-30T03:16:31.903Z,58.80
2023-01-30T03:17:04.341Z,64.10
2023-01-30T03:17:36.797Z,61.90
2023-01-30T03:18:09.273Z,64.70
2023-01-30T03:18:41.728Z,69.00
2023-01-30T03:19:14.199Z,60.30
2023-01-30T03:19:46.778Z,63.80
2023-01-30T03:20:19.204Z,66.60
2023-01-30T03:20:51.673Z,61.50
2023-01-30T03:21:24.232Z,64.40
2023-01-30T03:21:56.698Z,68.00
2023-01-30T03:22:29.253Z,63.40
2023-01-30T03:23:01.735Z,60.60
2023-01-30T03:23:34.181Z,59.30
2023-01-30T03:24:06.664Z,59.40
2023-01-30T03:24:39.127Z,58.80
2023-01-30T03:25:11.607Z,61.80
2023-01-30T03:25:44.010Z,58.90
2023-01-30T03:26:16.496Z,57.90
2023-01-30T03:26:48.921Z,59.10
2023-01-30T03:27:21.376Z,55.30
2023-01-30T03:27:53.821Z,55.20
2023-01-30T03:28:26.250Z,54.70
2023-01-30T03:28:58.695Z,59.40
2023-01-30T03:29:31.141Z,54.80
2023-01-30T03:30:03.587Z,50.20
2023-01-30T03:30:36.103Z,60.10
2023-01-30T03:31:08.611Z,65.20
2023-01-30T03:31:41.151Z,54.50
2023-01-30T03:32:13.459Z,49.70
2023-01-30T03:32:45.908Z,59.40
2023-01-30T03:33:19.316Z,56.60
2023-01-30T03:33:51.751Z,50.30
2023-01-30T03:34:24.273Z,62.00
2023-01-30T03:34:56.691Z,59.60
2023-01-30T03:35:29.119Z,60.10
2023-01-30T03:36:01.631Z,57.90
2023-01-30T03:36:34.180Z,57.70
2023-01-30T03:37:06.639Z,51.60
2023-01-30T03:37:39.226Z,49.80
2023-01-30T03:38:11.678Z,48.30
2023-01-30T03:38:44.120Z,53.60
2023-01-30T03:39:16.623Z,61.00
2023-01-30T03:39:49.115Z,55.50
2023-01-30T03:40:21.597Z,58.10
2023-01-30T03:40:54.029Z,67.20
2023-01-30T03:41:26.493Z,63.70
2023-01-30T03:41:58.954Z,52.80
2023-01-30T03:42:31.433Z,55.00
2023-01-30T03:43:03.962Z,57.40
2023-01-30T03:43:36.374Z,54.20
2023-01-30T03:44:08.893Z,49.00
2023-01-30T03:44:41.322Z,47.10
2023-01-30T03:45:13.812Z,48.60
2023-01-30T03:45:46.279Z,47.60
2023-01-30T03:46:18.727Z,44.90
2023-01-30T03:46:51.130Z,45.90
2023-01-30T03:47:23.596Z,57.90
2023-01-30T03:47:56.013Z,58.50
2023-01-30T03:48:28.447Z,48.00
2023-01-30T03:49:00.896Z,47.10
2023-01-30T03:49:33.342Z,50.90
2023-01-30T03:50:05.793Z,52.60
2023-01-30T03:50:38.272Z,54.00
2023-01-30T03:51:10.722Z,54.10
2023-01-30T03:51:43.179Z,49.20
2023-01-30T03:52:15.625Z,52.00
2023-01-30T03:52:48.089Z,55.00
2023-01-30T03:53:20.691Z,46.20
2023-01-30T03:53:53.154Z,48.20
2023-01-30T03:54:25.576Z,46.90
2023-01-30T03:54:58.113Z,46.80
2023-01-30T03:55:30.648Z,46.20
2023-01-30T03:56:03.163Z,42.50
2023-01-30T03:56:35.552Z,45.80
2023-01-30T03:57:07.989Z,48.50
2023-01-30T03:57:40.545Z,47.80
2023-01-30T03:58:13.023Z,54.00
2023-01-30T03:58:45.503Z,49.00
2023-01-30T03:59:17.966Z,50.70
2023-01-30T03:59:50.433Z,53.10
2023-01-30T04:00:22.920Z,47.90
2023-01-30T04:00:56.049Z,50.00
2023-01-30T04:01:27.879Z,50.40
2023-01-30T04:02:00.301Z,46.60
2023-01-30T04:02:32.854Z,49.70
2023-01-30T04:03:05.262Z,49.90
2023-01-30T04:03:37.793Z,47.90
2023-01-30T04:04:10.224Z,43.60
2023-01-30T04:04:42.654Z,45.20
2023-01-30T04:05:15.356Z,44.00
2023-01-30T04:05:47.575Z,45.10
2023-01-30T04:06:20.039Z,44.30
2023-01-30T04:06:52.610Z,44.80
2023-01-30T04:07:25.100Z,47.00
2023-01-30T04:07:57.607Z,46.30
2023-01-30T04:08:30.112Z,49.60
2023-01-30T04:09:02.598Z,46.50
2023-01-30T04:09:35.135Z,41.10
2023-01-30T04:10:07.553Z,44.90
2023-01-30T04:10:40.095Z,42.70
2023-01-30T04:11:12.576Z,42.70
2023-01-30T04:11:45.054Z,43.10
2023-01-30T04:12:17.540Z,40.30
2023-01-30T04:12:49.985Z,43.50
2023-01-30T04:13:22.441Z,49.80
2023-01-30T04:13:54.932Z,51.10
2023-01-30T04:14:27.393Z,46.60
2023-01-30T04:14:59.883Z,43.30
2023-01-30T04:15:32.361Z,40.90
2023-01-30T04:16:04.828Z,42.40
2023-01-30T04:16:37.318Z,43.30
2023-01-30T04:17:09.770Z,46.30
2023-01-30T04:17:42.213Z,43.30
2023-01-30T04:18:14.661Z,42.10
2023-01-30T04:18:47.111Z,47.20
2023-01-30T04:19:19.543Z,47.20
2023-01-30T04:19:52.067Z,41.80
2023-01-30T04:20:24.518Z,44.70
2023-01-30T04:20:57.039Z,48.40
2023-01-30T04:21:29.478Z,45.10
2023-01-30T04:22:01.929Z,38.60
2023-01-30T04:22:35.125Z,36.60
2023-01-30T04:23:07.655Z,41.80
2023-01-30T04:23:40.192Z,47.80
2023-01-30T04:24:12.666Z,42.60
2023-01-30T04:24:45.144Z,45.60
2023-01-30T04:25:17.841Z,42.90
2023-01-30T04:25:50.080Z,40.00
2023-01-30T04:26:22.527Z,44.70
2023-01-30T04:26:54.988Z,44.10
2023-01-30T04:27:27.433Z,43.70
2023-01-30T04:27:59.910Z,44.00
2023-01-30T04:28:32.374Z,39.70
2023-01-30T04:29:04.817Z,39.50
2023-01-30T04:29:37.253Z,42.80
2023-01-30T04:30:09.696Z,43.90
2023-01-30T04:30:42.200Z,41.80
2023-01-30T04:31:14.632Z,42.70
2023-01-30T04:31:47.042Z,39.70
2023-01-30T04:32:19.497Z,42.60
2023-01-30T04:32:51.952Z,41.20
2023-01-30T04:33:24.506Z,38.50
2023-01-30T04:33:57.009Z,43.00
2023-01-30T04:34:29.456Z,42.90
2023-01-30T04:35:01.895Z,39.90
2023-01-30T04:35:34.359Z,39.70
2023-01-30T04:36:06.833Z,40.40
2023-01-30T04:36:39.281Z,39.30
2023-01-30T04:37:11.798Z,42.30
2023-01-30T04:37:44.310Z,44.00
2023-01-30T04:38:16.835Z,42.90
2023-01-30T04:38:49.270Z,38.10
2023-01-30T04:39:22.210Z,35.20
2023-01-30T04:39:54.213Z,41.30
2023-01-30T04:40:26.625Z,42.50
2023-01-30T04:40:59.180Z,39.70
2023-01-30T04:41:31.623Z,40.40
2023-01-30T04:42:04.064Z,40.30
2023-01-30T04:42:36.642Z,38.00
2023-01-30T04:43:09.101Z,38.20
2023-01-30T04:43:41.565Z,41.80
2023-01-30T04:44:14.033Z,39.80
2023-01-30T04:44:46.477Z,39.30
2023-01-30T04:45:19.198Z,37.70
2023-01-30T04:45:51.410Z,38.00
2023-01-30T04:46:23.886Z,40.50
2023-01-30T04:46:56.328Z,43.60
2023-01-30T04:47:28.803Z,39.80
2023-01-30T04:48:01.251Z,41.00
2023-01-30T04:48:33.718Z,40.50
2023-01-30T04:49:06.172Z,34.20
2023-01-30T04:49:38.637Z,31.10
2023-01-30T04:50:11.112Z,31.70
2023-01-30T04:50:43.655Z,33.10
2023-01-30T04:51:16.117Z,35.20
2023-01-30T04:51:48.673Z,38.40
2023-01-30T04:52:21.115Z,36.30
2023-01-30T04:52:53.558Z,40.40
2023-01-30T04:53:26.001Z,40.50
2023-01-30T04:53:58.446Z,37.40
2023-01-30T04:54:30.927Z,33.90
2023-01-30T04:55:03.354Z,36.20
2023-01-30T04:55:35.789Z,42.00
2023-01-30T04:56:08.282Z,37.70
2023-01-30T04:56:40.728Z,33.00
2023-01-30T04:57:13.335Z,35.40
2023-01-30T04:57:45.795Z,39.80
2023-01-30T04:58:18.230Z,35.20
2023-01-30T04:58:50.725Z,31.60
2023-01-30T04:59:23.158Z,32.20
2023-01-30T04:59:55.683Z,38.10
2023-01-30T05:00:28.198Z,34.70
2023-01-30T05:01:00.721Z,35.10
2023-01-30T05:01:33.062Z,34.00
2023-01-30T05:02:05.535Z,36.50
2023-01-30T05:02:37.985Z,32.00
2023-01-30T05:03:10.492Z,33.70
2023-01-30T05:03:42.964Z,35.20
2023-01-30T05:04:15.430Z,32.10
2023-01-30T05:04:47.866Z,32.00
2023-01-30T05:05:20.565Z,32.40
2023-01-30T05:05:52.814Z,35.90
2023-01-30T05:06:25.252Z,33.70
2023-01-30T05:06:57.696Z,31.20
2023-01-30T05:07:30.151Z,32.40
2023-01-30T05:08:02.662Z,30.20
2023-01-30T05:08:35.130Z,33.80
2023-01-30T05:09:07.602Z,35.30
2023-01-30T05:09:40.080Z,29.40
2023-01-30T05:10:12.549Z,28.60
2023-01-30T05:10:45.020Z,32.20
2023-01-30T05:11:17.562Z,32.90
2023-01-30T05:11:50.012Z,34.90
2023-01-30T05:12:22.461Z,37.40
2023-01-30T05:12:54.884Z,32.30
2023-01-30T05:13:27.338Z,31.70
2023-01-30T05:13:59.783Z,33.30
2023-01-30T05:14:32.226Z,33.60
2023-01-30T05:15:04.709Z,36.40
2023-01-30T05:15:37.195Z,35.30
2023-01-30T05:16:09.774Z,31.90
2023-01-30T05:16:42.235Z,31.00
2023-01-30T05:17:14.745Z,34.40
2023-01-30T05:17:47.106Z,35.90
2023-01-30T05:18:19.606Z,33.40
2023-01-30T05:18:52.089Z,34.50
2023-01-30T05:19:24.610Z,31.60
2023-01-30T05:19:57.029Z,31.50
2023-01-30T05:20:29.459Z,34.30
2023-01-30T05:21:01.928Z,33.90
2023-01-30T05:21:34.385Z,32.30
2023-01-30T05:22:06.851Z,30.00
2023-01-30T05:22:39.271Z,31.90
2023-01-30T05:23:11.720Z,33.80
2023-01-30T05:23:44.220Z,32.50
2023-01-30T05:24:16.737Z,32.50
2023-01-30T05:24:49.257Z,31.50
2023-01-30T05:25:21.733Z,26.10
2023-01-30T05:25:54.222Z,28.90
2023-01-30T05:26:26.766Z,34.00
2023-01-30T05:26:59.241Z,30.90
2023-01-30T05:27:31.717Z,31.60
2023-01-30T05:28:04.207Z,28.90
2023-01-30T05:28:36.706Z,29.00
2023-01-30T05:29:09.183Z,34.40
2023-01-30T05:29:41.604Z,37.60
2023-01-30T05:30:14.049Z,31.60
2023-01-30T05:30:47.370Z,27.30
2023-01-30T05:31:18.998Z,28.70
2023-01-30T05:31:51.519Z,28.20
2023-01-30T05:32:23.908Z,26.40
2023-01-30T05:32:56.360Z,28.30
2023-01-30T05:33:28.867Z,33.30
2023-01-30T05:34:01.351Z,35.20
2023-01-30T05:34:33.838Z,30.70
2023-01-30T05:35:06.281Z,28.60
2023-01-30T05:35:38.740Z,25.70
2023-01-30T05:36:11.299Z,27.10
2023-01-30T05:36:43.849Z,28.70
2023-01-30T05:37:16.355Z,28.20
2023-01-30T05:37:48.802Z,25.80
2023-01-30T05:38:21.237Z,22.30
2023-01-30T05:38:53.731Z,25.70
2023-01-30T05:39:26.173Z,24.20
2023-01-30T05:39:58.674Z,21.10
2023-01-30T05:40:31.148Z,19.80
2023-01-30T05:41:03.776Z,18.60
2023-01-30T05:41:36.277Z,22.60
2023-01-30T05:42:08.756Z,21.60
2023-01-30T05:42:41.171Z,21.20
2023-01-30T05:43:13.779Z,21.70
2023-01-30T05:43:46.318Z,20.90
2023-01-30T05:44:18.914Z,18.00
2023-01-30T05:44:51.380Z,18.40
2023-01-30T05:45:23.898Z,19.70
2023-01-30T05:45:56.345Z,16.60
2023-01-30T05:46:28.794Z,17.40
2023-01-30T05:47:01.236Z,18.30
2023-01-30T05:47:33.730Z,17.90
2023-01-30T05:48:06.176Z,24.40
2023-01-30T05:48:38.637Z,24.20
2023-01-30T05:49:11.083Z,19.50
2023-01-30T05:49:43.745Z,23.30
2023-01-30T05:50:16.254Z,23.40
2023-01-30T05:50:48.675Z,21.20
2023-01-30T05:51:21.129Z,18.70
2023-01-30T05:51:53.596Z,19.70
2023-01-30T05:52:26.072Z,24.10
2023-01-30T05:52:58.550Z,22.20
2023-01-30T05:53:31.012Z,22.50
2023-01-30T05:54:03.450Z,20.20
2023-01-30T05:54:35.960Z,22.20
2023-01-30T05:55:08.432Z,25.60
2023-01-30T05:55:40.912Z,25.90
2023-01-30T05:56:13.402Z,24.00
2023-01-30T05:56:45.881Z,20.60
2023-01-30T05:57:18.329Z,23.00
2023-01-30T05:57:50.841Z,24.50
2023-01-30T05:58:23.366Z,24.50
2023-01-30T05:58:55.860Z,24.00
2023-01-30T05:59:28.319Z,23.10
2023-01-30T06:00:00.842Z,22.90
2023-01-30T06:00:33.371Z,23.50
2023-01-30T06:01:05.938Z,24.10
2023-01-30T06:01:38.515Z,24.70
2023-01-30T06:02:11.906Z,25.30
2023-01-30T06:02:43.601Z,23.60
2023-01-30T06:03:16.035Z,20.00
2023-01-30T06:03:48.570Z,21.70
2023-01-30T06:04:21.091Z,25.50
2023-01-30T06:04:53.504Z,24.10
2023-01-30T06:05:25.940Z,24.20
2023-01-30T06:05:58.448Z,21.30
2023-01-30T06:06:30.883Z,21.80
2023-01-30T06:07:03.488Z,20.70
2023-01-30T06:07:35.906Z,22.30
2023-01-30T06:08:16.176Z,22.40
2023-01-30T06:08:47.289Z,23.80
2023-01-30T06:09:19.738Z,22.60
2023-01-30T06:09:52.181Z,20.70
2023-01-30T06:10:24.663Z,22.40
2023-01-30T06:10:57.133Z,22.50
2023-01-30T06:11:29.609Z,20.70
2023-01-30T06:12:02.016Z,22.10
2023-01-30T06:12:34.597Z,18.30
2023-01-30T06:13:07.029Z,19.80
2023-01-30T06:13:39.537Z,21.00
2023-01-30T06:14:11.961Z,20.70
2023-01-30T06:14:44.439Z,16.20
2023-01-30T06:15:17.234Z,16.20
2023-01-30T06:15:49.523Z,14.10
2023-01-30T06:16:22.034Z,12.00
2023-01-30T06:16:54.466Z,14.50
2023-01-30T06:17:29.068Z,10.40
2023-01-30T06:17:59.416Z,10.90
2023-01-30T06:18:31.856Z,11.50
2023-01-30T06:19:04.418Z,12.60
2023-01-30T06:19:36.893Z,12.90
2023-01-30T06:20:09.393Z,10.90
2023-01-30T06:20:41.850Z,11.60
2023-01-30T06:21:14.314Z,12.20
2023-01-30T06:21:46.823Z,15.20
2023-01-30T06:22:19.268Z,13.20
2023-01-30T06:22:51.773Z,13.90
2023-01-30T06:23:24.536Z,15.80
2023-01-30T06:23:56.982Z,17.90
2023-01-30T06:24:29.488Z,17.20
2023-01-30T06:25:02.259Z,14.70
2023-01-30T06:25:39.679Z,12.90
2023-01-30T06:26:27.453Z,11.20
2023-01-30T06:26:59.993Z,14.40
2023-01-30T06:27:33.243Z,13.80
2023-01-30T06:28:06.939Z,17.30
2023-01-30T06:28:41.048Z,16.20
2023-01-30T06:29:22.029Z,12.20
2023-01-30T06:29:54.541Z,12.00
2023-01-30T06:30:27.039Z,14.60
2023-01-30T06:30:59.559Z,15.90
2023-01-30T06:31:32.027Z,13.80
2023-01-30T06:32:04.425Z,15.80
2023-01-30T06:32:36.896Z,16.30
2023-01-30T06:33:09.364Z,12.80
2023-01-30T06:33:41.813Z,12.90
2023-01-30T06:34:14.298Z,10.60
2023-01-30T06:34:46.753Z,11.20
2023-01-30T06:35:19.513Z,14.80
2023-01-30T06:35:51.728Z,16.80
2023-01-30T06:36:24.165Z,13.00
2023-01-30T06:36:56.623Z,9.80
2023-01-30T06:37:29.092Z,10.40
2023-01-30T06:38:01.533Z,13.50
2023-01-30T06:38:34.002Z,14.50
2023-01-30T06:39:06.478Z,10.40
2023-01-30T06:39:39.000Z,7.90
2023-01-30T06:40:11.444Z,10.80
2023-01-30T06:42:29.896Z,9.10
2023-01-30T06:43:02.359Z,9.00
2023-01-30T06:43:34.865Z,8.60
2023-01-30T06:44:07.302Z,11.40
2023-01-30T06:44:39.737Z,11.70
2023-01-30T06:45:12.163Z,6.40
2023-01-30T06:45:44.649Z,9.50
2023-01-30T06:46:17.596Z,7.90
2023-01-30T06:46:50.041Z,10.70
2023-01-30T06:47:22.485Z,12.20
2023-01-30T06:47:54.968Z,9.40
2023-01-30T06:48:27.436Z,7.20
2023-01-30T06:48:59.879Z,7.30
2023-01-30T06:49:32.452Z,7.60
2023-01-30T06:50:04.887Z,8.10
2023-01-30T06:50:37.372Z,5.80
2023-01-30T06:51:10.387Z,7.00
2023-01-30T06:51:43.038Z,10.10
2023-01-30T06:52:15.564Z,8.90
2023-01-30T06:52:49.384Z,4.50
2023-01-30T06:53:21.839Z,4.30
2023-01-30T06:53:54.868Z,6.50
2023-01-30T06:54:27.356Z,22.20
2023-01-30T06:54:59.824Z,22.10
2023-01-30T06:55:32.294Z,14.20
2023-01-30T06:56:04.821Z,15.30
2023-01-30T06:56:37.286Z,12.80
2023-01-30T06:57:09.705Z,8.40
2023-01-30T06:57:42.153Z,9.50
2023-01-30T06:58:14.731Z,11.80
2023-01-30T06:58:47.166Z,11.10
2023-01-30T06:59:19.697Z,11.30
2023-01-30T06:59:52.171Z,10.40
2023-01-30T07:00:24.673Z,6.90
2023-01-30T07:00:57.116Z,8.20